Time;durP1;ratioP1;P1;durP2;ratioP2;P2;SDS_P1;SDS_P2;PMS_P1;PMS_P2;Temp;Humidity;BMP_temperature;BMP_pressure;BME280_temperature;BME280_humidity;BME280_pressure;Samples;Min_cycle;Max_cycle;Signal;HPM_P1;HPM_P2
2023/08/10 00:02:08;;;;;;;9.98;1.63;;;16.30;97.20;;;;;;4940048;28;20036;-86
2023/08/10 00:04:34;;;;;;;8.32;2.00;;;16.20;97.10;;;;;;4937157;28;20465;-87
2023/08/10 00:06:59;;;;;;;4.13;1.48;;;16.20;97.30;;;;;;4938885;28;20070;-80
2023/08/10 00:09:27;;;;;;;5.30;2.25;;;16.30;97.30;;;;;;4923729;28;20726;-87
2023/08/10 00:11:55;;;;;;;4.25;2.00;;;16.40;97.00;;;;;;4935875;28;20044;-86
2023/08/10 00:14:23;;;;;;;3.88;2.00;;;16.40;97.10;;;;;;4942991;28;20039;-87
2023/08/10 00:16:50;;;;;;;9.55;1.77;;;16.50;97.00;;;;;;4918769;28;20087;-76
2023/08/10 00:19:18;;;;;;;11.90;2.47;;;16.50;97.10;;;;;;4933468;28;20240;-86
2023/08/10 00:21:44;;;;;;;9.25;2.30;;;16.40;97.10;;;;;;4923761;28;20699;-85
2023/08/10 00:24:09;;;;;;;5.82;2.22;;;16.40;97.30;;;;;;4941656;28;20107;-86
2023/08/10 00:26:35;;;;;;;10.20;2.80;;;16.40;97.50;;;;;;4938090;28;20114;-86
2023/08/10 00:29:00;;;;;;;2.25;2.03;;;16.40;97.60;;;;;;4938679;28;20069;-86
2023/08/10 00:31:27;;;;;;;4.43;2.25;;;16.40;97.50;;;;;;4937440;28;20026;-86
2023/08/10 00:33:52;;;;;;;6.90;1.88;;;16.40;97.40;;;;;;4937666;28;20097;-86
2023/08/10 00:36:18;;;;;;;8.50;2.20;;;16.30;97.60;;;;;;4941185;28;20024;-85
2023/08/10 00:38:46;;;;;;;5.38;2.03;;;16.30;97.80;;;;;;4928647;28;20094;-87
2023/08/10 00:41:12;;;;;;;4.70;2.47;;;16.30;98.00;;;;;;4933500;28;20035;-84
2023/08/10 00:43:37;;;;;;;7.15;1.88;;;16.30;98.10;;;;;;4939589;28;20023;-86
2023/08/10 00:46:05;;;;;;;4.45;1.70;;;16.20;98.00;;;;;;4938036;28;20103;-86
2023/08/10 00:48:31;;;;;;;4.78;1.80;;;16.10;98.20;;;;;;4921445;28;20027;-87
2023/08/10 00:50:57;;;;;;;5.50;2.05;;;16.20;98.50;;;;;;4938544;28;20090;-81
2023/08/10 00:53:22;;;;;;;6.15;1.95;;;16.30;98.50;;;;;;4936681;28;20051;-86
2023/08/10 00:55:51;;;;;;;4.63;1.90;;;16.40;98.40;;;;;;4938532;28;20036;-85
2023/08/10 00:58:21;;;;;;;6.07;2.50;;;16.40;98.20;;;;;;4939657;28;20027;-86
2023/08/10 01:00:48;;;;;;;8.10;2.10;;;16.50;98.30;;;;;;4955588;28;20082;-86
2023/08/10 01:03:14;;;;;;;9.48;2.20;;;16.50;98.10;;;;;;4928844;28;20491;-85
2023/08/10 01:06:01;;;;;;;13.23;2.70;;;16.60;98.20;;;;;;4961287;28;20019;-87
2023/08/10 01:08:53;;;;;;;6.63;2.47;;;16.60;98.00;;;;;;4939641;28;20117;-87
2023/08/10 01:11:42;;;;;;;4.97;2.35;;;16.60;98.10;;;;;;4909264;28;20079;-87
2023/08/10 01:14:12;;;;;;;10.15;2.28;;;16.60;98.10;;;;;;4958491;28;20011;-85
2023/08/10 01:16:41;;;;;;;11.10;2.60;;;16.60;98.20;;;;;;4957463;28;20818;-76
2023/08/10 01:19:37;;;;;;;5.15;2.40;;;16.60;98.30;;;;;;4943392;28;20054;-76
2023/08/10 01:22:18;;;;;;;6.18;2.63;;;16.50;98.40;;;;;;4941781;28;20053;-76
2023/08/10 01:24:46;;;;;;;8.85;2.08;;;16.40;98.60;;;;;;4954433;28;20094;-76
2023/08/10 01:27:12;;;;;;;5.07;2.25;;;16.30;99.00;;;;;;4958698;28;20097;-76
2023/08/10 01:29:39;;;;;;;6.75;2.55;;;16.20;99.30;;;;;;4951860;28;20669;-76
2023/08/10 01:32:05;;;;;;;11.00;2.38;;;16.10;99.60;;;;;;4934721;28;20027;-76
2023/08/10 01:34:30;;;;;;;10.32;2.55;;;16.10;99.40;;;;;;4955557;28;20438;-76
2023/08/10 01:36:59;;;;;;;4.13;2.55;;;16.10;99.40;;;;;;4930695;28;20035;-77
2023/08/10 01:39:25;;;;;;;8.93;2.95;;;16.00;99.60;;;;;;4955567;28;20034;-76
2023/08/10 01:41:51;;;;;;;10.20;2.50;;;15.90;99.90;;;;;;4953269;28;20035;-76
2023/08/10 01:44:17;;;;;;;4.85;2.40;;;15.90;99.90;;;;;;4938931;28;20648;-76
2023/08/10 01:46:46;;;;;;;13.50;2.60;;;15.90;99.90;;;;;;4955281;28;20030;-76
2023/08/10 01:49:14;;;;;;;9.35;2.80;;;15.90;99.90;;;;;;4945221;28;20031;-76
2023/08/10 01:51:45;;;;;;;5.82;2.72;;;15.90;99.90;;;;;;4958749;28;20031;-76
2023/08/10 01:54:12;;;;;;;5.72;2.50;;;16.00;99.90;;;;;;4956243;28;20034;-76
2023/08/10 01:56:38;;;;;;;4.35;2.95;;;16.00;99.80;;;;;;4923877;28;20726;-76
2023/08/10 01:59:04;;;;;;;4.22;2.33;;;15.90;99.80;;;;;;4938955;28;20275;-76
2023/08/10 02:01:30;;;;;;;6.28;2.47;;;15.90;99.90;;;;;;4954482;28;20494;-77
2023/08/10 02:03:57;;;;;;;6.70;2.90;;;15.90;99.90;;;;;;4946199;28;20023;-76
2023/08/10 02:06:25;;;;;;;5.20;2.60;;;16.00;99.80;;;;;;4954130;28;20033;-76
2023/08/10 02:08:50;;;;;;;5.88;2.30;;;16.10;99.50;;;;;;4952280;28;20546;-76
2023/08/10 02:11:16;;;;;;;7.32;2.95;;;16.10;99.50;;;;;;4951631;28;20054;-76
2023/08/10 02:13:42;;;;;;;6.15;2.75;;;16.10;99.50;;;;;;4949969;28;20087;-76
2023/08/10 02:16:07;;;;;;;3.67;2.40;;;16.10;99.40;;;;;;4948987;28;20054;-76
2023/08/10 02:18:33;;;;;;;6.32;2.50;;;16.00;99.50;;;;;;4958466;28;20020;-77
2023/08/10 02:21:00;;;;;;;8.07;3.38;;;16.00;99.50;;;;;;4951879;28;20023;-76
2023/08/10 02:23:29;;;;;;;6.30;2.85;;;16.10;99.40;;;;;;4938790;28;20027;-76
2023/08/10 02:25:54;;;;;;;7.57;2.78;;;16.20;99.20;;;;;;4937009;28;20487;-76
2023/08/10 02:28:20;;;;;;;11.90;2.35;;;16.30;99.10;;;;;;4951770;28;20039;-76
2023/08/10 02:30:46;;;;;;;10.10;2.90;;;16.40;99.40;;;;;;4946905;28;20687;-76
2023/08/10 02:33:14;;;;;;;8.05;2.88;;;16.40;99.10;;;;;;4944153;28;20031;-76
2023/08/10 02:35:39;;;;;;;8.02;2.53;;;16.40;99.00;;;;;;4949097;28;20023;-76
2023/08/10 02:38:07;;;;;;;4.72;2.83;;;16.40;99.00;;;;;;4946021;28;20025;-76
2023/08/10 02:40:32;;;;;;;8.65;3.03;;;16.30;98.70;;;;;;4951768;28;20066;-76
2023/08/10 02:42:58;;;;;;;4.72;2.75;;;16.40;98.80;;;;;;4951962;28;20051;-76
2023/08/10 02:45:24;;;;;;;6.05;2.92;;;16.40;98.90;;;;;;4948972;28;20035;-77
2023/08/10 02:47:49;;;;;;;6.60;2.95;;;16.40;98.90;;;;;;4950730;28;20504;-76
2023/08/10 02:50:15;;;;;;;7.45;2.72;;;16.40;98.90;;;;;;4941441;28;20031;-75
2023/08/10 02:52:40;;;;;;;5.68;2.47;;;16.40;99.20;;;;;;4944249;28;20475;-76
2023/08/10 02:55:07;;;;;;;5.70;2.30;;;16.40;98.90;;;;;;4953460;28;20458;-76
2023/08/10 02:57:32;;;;;;;8.25;2.22;;;16.40;99.40;;;;;;4948668;28;20110;-76
2023/08/10 02:59:58;;;;;;;7.97;2.30;;;16.40;99.30;;;;;;4953001;28;20555;-76
2023/08/10 03:02:24;;;;;;;6.32;2.33;;;16.40;99.30;;;;;;4952967;28;20089;-76
2023/08/10 03:04:50;;;;;;;9.82;2.33;;;16.40;99.20;;;;;;4954860;28;20028;-76
2023/08/10 03:07:18;;;;;;;6.50;2.30;;;16.40;99.10;;;;;;4958012;28;20062;-76
2023/08/10 03:09:43;;;;;;;3.88;2.28;;;16.30;99.10;;;;;;4962330;28;20041;-77
2023/08/10 03:12:09;;;;;;;7.63;2.80;;;16.30;99.10;;;;;;4961011;28;20035;-76
2023/08/10 03:14:35;;;;;;;5.20;2.25;;;16.20;99.00;;;;;;4958443;28;20034;-76
2023/08/10 03:17:00;;;;;;;3.00;2.60;;;16.30;99.00;;;;;;4945748;28;20037;-76
2023/08/10 03:19:26;;;;;;;5.55;2.60;;;16.30;99.40;;;;;;4937234;28;20612;-76
2023/08/10 03:21:52;;;;;;;10.88;3.28;;;16.40;98.90;;;;;;4955730;28;20027;-76
2023/08/10 03:24:17;;;;;;;4.57;2.33;;;16.40;99.20;;;;;;4954107;28;20098;-76
2023/08/10 03:26:43;;;;;;;5.35;2.47;;;16.40;99.30;;;;;;4952904;28;20023;-76
2023/08/10 03:29:08;;;;;;;7.22;2.45;;;16.40;99.20;;;;;;4957568;28;20036;-76
2023/08/10 03:31:36;;;;;;;5.47;2.70;;;16.40;99.30;;;;;;4961053;28;20285;-76
2023/08/10 03:34:02;;;;;;;6.85;2.40;;;16.40;99.10;;;;;;4945589;28;20054;-76
2023/08/10 03:36:27;;;;;;;4.03;2.45;;;16.30;99.00;;;;;;4953037;28;20058;-76
2023/08/10 03:38:55;;;;;;;8.38;2.80;;;16.30;99.20;;;;;;4954157;28;20094;-77
2023/08/10 03:41:21;;;;;;;4.18;2.67;;;16.40;99.10;;;;;;4954936;28;20038;-76
2023/08/10 03:43:46;;;;;;;6.07;2.60;;;16.30;99.00;;;;;;4944167;28;20114;-76
2023/08/10 03:46:12;;;;;;;4.35;2.70;;;16.30;99.20;;;;;;4953778;28;20078;-76
2023/08/10 03:48:38;;;;;;;11.95;3.15;;;16.30;99.10;;;;;;4936720;28;20030;-77
2023/08/10 03:51:03;;;;;;;9.13;2.90;;;16.30;98.70;;;;;;4954890;28;20027;-77
2023/08/10 03:53:29;;;;;;;7.85;3.22;;;16.40;98.70;;;;;;4958991;28;20034;-76
2023/08/10 03:55:57;;;;;;;9.75;3.10;;;16.40;99.00;;;;;;4944495;28;20114;-76
2023/08/10 03:58:23;;;;;;;3.25;2.38;;;16.20;99.20;;;;;;4937314;28;20019;-76
2023/08/10 04:00:49;;;;;;;9.18;3.40;;;16.10;99.40;;;;;;4954521;28;20023;-76
2023/08/10 04:03:15;;;;;;;4.10;2.80;;;16.20;99.00;;;;;;4946718;28;20059;-76
2023/08/10 04:05:43;;;;;;;8.05;2.67;;;16.10;99.20;;;;;;4954745;28;20023;-76
2023/08/10 04:08:09;;;;;;;11.57;2.92;;;16.00;99.40;;;;;;4954172;28;20027;-76
2023/08/10 04:10:35;;;;;;;6.13;3.38;;;16.00;99.60;;;;;;4935773;28;20412;-76
2023/08/10 04:13:01;;;;;;;6.00;3.33;;;16.10;99.80;;;;;;4952061;28;20019;-76
2023/08/10 04:15:28;;;;;;;9.07;3.03;;;16.10;99.30;;;;;;4953255;28;20038;-77
2023/08/10 04:17:53;;;;;;;6.30;3.17;;;16.10;99.10;;;;;;4933588;28;20015;-76
2023/08/10 04:20:19;;;;;;;10.27;3.33;;;16.20;99.30;;;;;;4946095;28;20020;-76
2023/08/10 04:22:45;;;;;;;9.77;3.40;;;16.10;99.20;;;;;;4951438;28;20046;-76
2023/08/10 04:25:11;;;;;;;10.93;3.33;;;16.10;99.20;;;;;;4956308;28;20027;-76
2023/08/10 04:27:40;;;;;;;7.35;2.63;;;16.00;99.30;;;;;;4952379;28;20023;-77
2023/08/10 04:30:08;;;;;;;3.95;2.42;;;16.10;99.50;;;;;;4957840;28;20102;-77
2023/08/10 04:32:35;;;;;;;5.75;2.38;;;16.10;99.90;;;;;;4958355;28;20113;-76
2023/08/10 04:35:02;;;;;;;6.60;2.30;;;16.20;99.90;;;;;;4938035;28;20067;-76
2023/08/10 04:37:28;;;;;;;5.20;1.98;;;16.20;99.90;;;;;;4956958;28;20195;-76
2023/08/10 04:39:53;;;;;;;7.55;3.75;;;16.10;99.90;;;;;;4954578;28;20049;-76
2023/08/10 04:42:19;;;;;;;10.32;2.35;;;16.20;99.90;;;;;;4958606;28;20527;-77
2023/08/10 04:44:49;;;;;;;11.90;2.58;;;16.20;99.90;;;;;;4934788;28;20035;-76
2023/08/10 04:47:15;;;;;;;7.32;2.65;;;16.30;99.90;;;;;;4942653;28;20027;-76
2023/08/10 04:49:40;;;;;;;5.82;2.45;;;16.20;99.90;;;;;;4954337;28;20038;-78
2023/08/10 04:52:07;;;;;;;8.88;2.92;;;16.20;99.90;;;;;;4949487;28;20106;-76
2023/08/10 04:54:32;;;;;;;3.97;2.63;;;16.20;99.90;;;;;;4955862;28;20027;-76
2023/08/10 04:57:00;;;;;;;10.68;3.28;;;16.10;99.90;;;;;;4953145;28;20039;-76
2023/08/10 04:59:26;;;;;;;8.13;3.17;;;16.10;99.90;;;;;;4950977;28;20027;-76
2023/08/10 05:01:51;;;;;;;12.32;3.50;;;16.10;99.90;;;;;;4932482;28;20019;-76
2023/08/10 05:04:17;;;;;;;8.45;3.17;;;16.20;99.90;;;;;;4957118;28;20026;-77
2023/08/10 05:06:43;;;;;;;6.70;3.42;;;16.20;99.90;;;;;;4940561;28;20058;-78
2023/08/10 05:09:09;;;;;;;10.30;3.17;;;16.20;99.70;;;;;;4959133;28;20030;-85
2023/08/10 05:11:35;;;;;;;10.55;2.78;;;16.10;99.90;;;;;;4939680;28;20031;-86
2023/08/10 05:14:00;;;;;;;5.32;3.05;;;16.10;99.90;;;;;;4959718;28;20023;-87
2023/08/10 05:16:26;;;;;;;9.80;3.30;;;16.10;99.90;;;;;;4948768;28;20121;-84
2023/08/10 05:18:52;;;;;;;6.18;3.20;;;16.20;99.90;;;;;;4958492;28;20058;-88
2023/08/10 05:21:19;;;;;;;11.25;3.08;;;16.20;99.90;;;;;;4954398;28;20011;-84
2023/08/10 05:23:45;;;;;;;12.90;3.38;;;16.20;99.90;;;;;;4955327;28;20050;-86
2023/08/10 05:26:13;;;;;;;11.52;3.15;;;16.20;99.90;;;;;;4962356;28;20029;-88
2023/08/10 05:28:39;;;;;;;5.00;2.70;;;16.20;99.90;;;;;;4974078;28;20030;-84
2023/08/10 05:31:04;;;;;;;5.78;2.85;;;16.30;99.90;;;;;;4959027;28;20051;-76
2023/08/10 05:33:30;;;;;;;8.35;3.13;;;16.40;99.90;;;;;;4946338;28;20027;-76
2023/08/10 05:35:56;;;;;;;5.90;2.95;;;16.50;99.90;;;;;;4941701;28;20042;-75
2023/08/10 05:38:21;;;;;;;8.23;3.00;;;16.50;99.90;;;;;;4939790;28;20027;-76
2023/08/10 05:40:49;;;;;;;5.82;2.83;;;16.60;99.90;;;;;;4949948;28;20023;-75
2023/08/10 05:43:15;;;;;;;8.93;3.20;;;16.60;99.90;;;;;;5086181;23;20071;-87
2023/08/10 05:45:40;;;;;;;7.00;3.13;;;16.40;99.90;;;;;;4935865;28;20085;-88
2023/08/10 05:48:10;;;;;;;7.75;3.25;;;16.40;99.90;;;;;;4934853;28;20023;-88
2023/08/10 05:50:36;;;;;;;7.15;2.65;;;16.40;99.90;;;;;;4917636;28;20400;-77
2023/08/10 05:53:03;;;;;;;6.00;2.75;;;16.40;99.90;;;;;;4913966;28;20028;-83
2023/08/10 05:55:28;;;;;;;6.68;3.35;;;16.30;99.90;;;;;;4938444;28;20035;-88
2023/08/10 05:57:59;;;;;;;7.28;3.10;;;16.10;99.90;;;;;;4935344;28;20075;-89
2023/08/10 06:00:27;;;;;;;6.57;3.45;;;16.00;99.90;;;;;;4934228;28;20039;-78
2023/08/10 06:02:55;;;;;;;7.50;3.28;;;16.00;99.90;;;;;;4932073;28;20186;-78
2023/08/10 06:05:21;;;;;;;6.78;3.00;;;16.10;99.90;;;;;;4920184;28;20061;-86
2023/08/10 06:07:49;;;;;;;7.32;3.40;;;16.20;99.90;;;;;;4923733;28;20558;-87
2023/08/10 06:10:16;;;;;;;6.57;2.80;;;16.20;99.90;;;;;;4934114;28;20036;-84
2023/08/10 06:12:42;;;;;;;14.65;3.28;;;16.40;99.90;;;;;;4929414;28;20507;-78
2023/08/10 06:15:11;;;;;;;7.30;2.97;;;16.50;99.90;;;;;;4932925;28;20032;-77
2023/08/10 06:17:40;;;;;;;6.97;3.38;;;16.70;99.90;;;;;;4915185;28;20011;-88
2023/08/10 06:20:09;;;;;;;8.23;3.30;;;16.80;99.70;;;;;;4919385;29;20028;-88
2023/08/10 06:22:39;;;;;;;8.15;3.70;;;16.90;99.40;;;;;;4915235;28;20037;-88
2023/08/10 06:25:05;;;;;;;6.40;2.60;;;17.10;99.10;;;;;;4935035;28;20102;-86
2023/08/10 06:27:36;;;;;;;7.40;2.80;;;17.10;99.10;;;;;;4934226;28;20031;-78
2023/08/10 06:30:03;;;;;;;12.02;2.92;;;17.20;99.10;;;;;;4930658;28;20085;-78
2023/08/10 06:32:29;;;;;;;7.03;2.95;;;17.20;99.10;;;;;;4917682;28;20476;-78
2023/08/10 06:34:55;;;;;;;7.13;2.53;;;17.20;99.30;;;;;;4931387;28;20026;-78
2023/08/10 06:37:21;;;;;;;6.80;2.42;;;17.30;98.70;;;;;;4932122;28;20028;-78
2023/08/10 06:39:46;;;;;;;4.45;2.28;;;17.30;98.40;;;;;;4941684;28;20118;-88
2023/08/10 06:42:12;;;;;;;6.68;2.00;;;17.20;98.70;;;;;;4937873;28;20173;-88
2023/08/10 06:44:40;;;;;;;2.47;1.67;;;17.10;98.40;;;;;;4923595;28;20031;-89
2023/08/10 06:47:06;;;;;;;6.50;1.95;;;17.30;98.60;;;;;;4918934;28;20073;-78
2023/08/10 06:49:34;;;;;;;4.82;1.55;;;17.40;98.20;;;;;;4936627;28;20047;-78
2023/08/10 06:52:00;;;;;;;5.28;1.40;;;17.50;97.60;;;;;;4934697;28;20086;-78
2023/08/10 06:54:27;;;;;;;4.43;1.30;;;17.70;96.60;;;;;;4919093;28;20023;-78
2023/08/10 06:56:53;;;;;;;8.07;1.42;;;17.80;96.90;;;;;;4932326;28;20070;-78
2023/08/10 06:59:19;;;;;;;3.60;1.50;;;17.90;96.90;;;;;;4934691;28;20015;-78
2023/08/10 07:01:44;;;;;;;6.10;1.58;;;17.90;96.90;;;;;;4936460;28;20028;-88
2023/08/10 07:04:10;;;;;;;9.43;1.40;;;17.90;96.70;;;;;;4939915;28;20086;-87
2023/08/10 07:06:36;;;;;;;8.10;1.73;;;17.90;96.40;;;;;;4925774;28;20606;-88
2023/08/10 07:09:03;;;;;;;7.00;1.40;;;17.90;96.70;;;;;;4937988;28;20066;-83
2023/08/10 07:11:29;;;;;;;7.43;1.25;;;18.00;96.50;;;;;;4922600;28;20067;-84
2023/08/10 07:13:55;;;;;;;4.38;1.35;;;18.00;96.00;;;;;;4925516;28;20496;-82
2023/08/10 07:16:20;;;;;;;7.50;1.33;;;18.10;96.20;;;;;;4941237;28;20114;-85
2023/08/10 07:18:46;;;;;;;2.45;1.20;;;18.00;95.90;;;;;;4935329;28;20247;-78
2023/08/10 07:21:12;;;;;;;6.10;1.45;;;18.00;96.00;;;;;;4935713;28;20047;-78
2023/08/10 07:23:40;;;;;;;7.28;1.50;;;17.90;96.20;;;;;;4930881;28;20111;-77
2023/08/10 07:26:06;;;;;;;7.00;1.77;;;18.00;96.20;;;;;;4921482;28;20085;-78
2023/08/10 07:28:31;;;;;;;3.97;1.10;;;18.10;95.90;;;;;;4933561;28;20023;-78
2023/08/10 07:31:00;;;;;;;8.95;1.50;;;18.20;95.80;;;;;;4931796;28;20016;-77
2023/08/10 07:33:28;;;;;;;4.38;1.45;;;18.40;95.40;;;;;;4932128;28;20533;-77
2023/08/10 07:35:54;;;;;;;11.43;1.58;;;18.50;95.40;;;;;;4930150;28;20127;-78
2023/08/10 07:38:19;;;;;;;3.28;1.30;;;18.60;95.30;;;;;;4931999;28;20118;-77
2023/08/10 07:40:45;;;;;;;8.48;1.45;;;18.60;94.40;;;;;;4933804;28;20027;-77
2023/08/10 07:43:13;;;;;;;6.95;1.10;;;18.70;94.50;;;;;;4933547;28;20039;-86
2023/08/10 07:45:38;;;;;;;5.55;1.00;;;18.70;94.10;;;;;;4932372;28;20418;-77
2023/08/10 07:48:04;;;;;;;8.82;2.00;;;18.80;94.50;;;;;;4932825;28;20036;-77
2023/08/10 07:50:32;;;;;;;9.52;1.63;;;18.90;94.00;;;;;;4932728;28;20032;-77
2023/08/10 07:52:58;;;;;;;4.80;1.75;;;18.70;94.00;;;;;;4936000;28;20089;-86
2023/08/10 07:55:24;;;;;;;2.45;1.50;;;18.90;94.60;;;;;;4938814;28;20574;-77
2023/08/10 07:57:50;;;;;;;4.70;1.33;;;19.00;93.70;;;;;;4919675;28;20322;-87
2023/08/10 08:00:16;;;;;;;3.95;1.10;;;19.10;91.30;;;;;;5073494;23;20051;-88
2023/08/10 08:02:41;;;;;;;3.78;1.08;;;19.10;91.70;;;;;;4941555;28;20517;-76
2023/08/10 08:05:07;;;;;;;3.92;1.23;;;19.20;91.60;;;;;;4940754;28;20023;-77
2023/08/10 08:07:35;;;;;;;3.45;1.02;;;19.10;91.00;;;;;;4941336;28;20170;-78
2023/08/10 08:10:01;;;;;;;5.18;1.20;;;19.10;90.50;;;;;;4924942;28;20673;-83
2023/08/10 08:12:29;;;;;;;7.22;1.25;;;19.20;90.00;;;;;;4944788;28;20548;-85
2023/08/10 08:14:55;;;;;;;4.43;1.20;;;19.20;89.00;;;;;;4941342;28;20026;-78
2023/08/10 08:17:22;;;;;;;5.45;1.20;;;19.40;89.80;;;;;;4937806;28;20464;-76
2023/08/10 08:19:47;;;;;;;3.80;1.10;;;19.40;90.10;;;;;;4942797;28;20023;-87
2023/08/10 08:22:13;;;;;;;6.00;1.27;;;19.60;89.00;;;;;;4922920;28;20086;-76
2023/08/10 08:24:41;;;;;;;3.08;1.30;;;19.70;89.00;;;;;;4925349;29;20019;-77
2023/08/10 08:27:07;;;;;;;4.78;1.60;;;19.80;88.30;;;;;;4940038;28;20135;-76
2023/08/10 08:29:34;;;;;;;4.18;1.20;;;19.80;89.30;;;;;;4940119;28;20098;-77
2023/08/10 08:32:00;;;;;;;5.15;1.00;;;19.80;88.00;;;;;;4939542;28;20027;-77
2023/08/10 08:34:26;;;;;;;4.95;1.25;;;20.00;87.10;;;;;;4937732;28;20440;-76
2023/08/10 08:36:51;;;;;;;4.93;1.02;;;20.10;87.70;;;;;;4943073;28;20035;-85
2023/08/10 08:39:17;;;;;;;3.33;1.50;;;20.00;87.70;;;;;;4941543;28;20031;-84
2023/08/10 08:41:45;;;;;;;2.20;1.08;;;20.00;89.00;;;;;;4966134;28;20034;-84
2023/08/10 08:44:11;;;;;;;5.57;1.60;;;20.30;89.20;;;;;;4965208;28;20035;-84
2023/08/10 08:46:42;;;;;;;5.75;1.33;;;20.50;88.20;;;;;;4943696;28;20027;-86
2023/08/10 08:49:09;;;;;;;2.60;1.42;;;20.50;87.20;;;;;;4944963;28;20023;-86
2023/08/10 08:51:38;;;;;;;5.55;1.50;;;20.70;87.60;;;;;;4925465;28;20032;-83
2023/08/10 08:54:04;;;;;;;4.80;1.40;;;20.80;87.10;;;;;;4925616;29;20594;-77
2023/08/10 08:56:29;;;;;;;2.75;1.02;;;21.10;86.60;;;;;;4923649;29;20039;-77
2023/08/10 08:59:01;;;;;;;5.63;1.67;;;21.30;85.70;;;;;;4917640;28;21038;-77
2023/08/10 09:01:29;;;;;;;3.30;1.27;;;21.20;85.20;;;;;;4923933;28;20063;-77
2023/08/10 09:03:54;;;;;;;5.30;1.63;;;21.20;84.80;;;;;;4934536;28;20127;-77
2023/08/10 09:06:20;;;;;;;6.78;1.60;;;21.20;84.00;;;;;;4922212;28;20121;-77
2023/08/10 09:08:46;;;;;;;4.90;1.55;;;21.50;84.50;;;;;;4939435;28;20033;-77
2023/08/10 09:11:14;;;;;;;9.02;1.80;;;21.50;82.10;;;;;;4938241;28;20030;-77
2023/08/10 09:14:07;;;;;;;5.65;1.40;;;22.00;81.40;;;;;;4925582;29;20023;-87
2023/08/10 09:16:33;;;;;;;4.15;1.67;;;22.50;78.70;;;;;;4941473;28;20292;-78
2023/08/10 09:19:01;;;;;;;10.10;1.80;;;23.10;78.10;;;;;;4920683;29;20177;-77
2023/08/10 09:21:31;;;;;;;4.63;1.33;;;23.20;73.90;;;;;;4939744;28;20110;-77
2023/08/10 09:23:57;;;;;;;4.70;1.50;;;23.50;74.70;;;;;;4922855;29;20019;-85
2023/08/10 09:26:25;;;;;;;3.30;1.90;;;23.80;73.90;;;;;;4942112;28;20942;-88
2023/08/10 09:28:51;;;;;;;3.40;1.42;;;23.90;71.70;;;;;;4926583;28;20058;-82
2023/08/10 09:31:27;;;;;;;2.67;1.33;;;23.80;73.70;;;;;;4941872;28;20375;-85
2023/08/10 09:33:58;;;;;;;2.60;1.40;;;24.10;71.30;;;;;;4942157;28;20023;-87
2023/08/10 09:36:26;;;;;;;4.20;1.52;;;24.20;72.20;;;;;;4942785;28;20096;-78
2023/08/10 09:38:53;;;;;;;5.97;2.03;;;24.30;71.20;;;;;;4939269;28;20034;-77
2023/08/10 09:41:20;;;;;;;6.55;1.55;;;24.70;70.90;;;;;;4941547;28;20023;-77
2023/08/10 09:43:47;;;;;;;2.60;1.50;;;25.20;69.10;;;;;;4938095;28;20106;-78
2023/08/10 09:46:14;;;;;;;5.55;1.48;;;25.80;69.50;;;;;;4937295;28;20023;-88
2023/08/10 09:48:42;;;;;;;3.85;2.00;;;26.50;66.40;;;;;;4925131;29;20114;-87
2023/08/10 09:51:11;;;;;;;5.05;1.40;;;26.90;68.10;;;;;;4925243;29;20031;-87
2023/08/10 09:53:40;;;;;;;3.60;1.65;;;27.00;68.60;;;;;;4940937;28;20027;-85
2023/08/10 09:56:09;;;;;;;10.70;1.70;;;26.80;64.80;;;;;;4923568;28;20051;-82
2023/08/10 09:58:40;;;;;;;5.90;1.65;;;27.10;68.10;;;;;;4923765;28;20636;-87
2023/08/10 10:01:07;;;;;;;4.25;1.50;;;27.40;69.20;;;;;;4926810;29;20035;-77
2023/08/10 10:03:34;;;;;;;3.45;1.58;;;27.80;65.90;;;;;;4934494;28;20035;-76
2023/08/10 10:06:01;;;;;;;8.25;2.38;;;27.00;60.40;;;;;;4937034;28;20035;-77
2023/08/10 10:08:28;;;;;;;3.25;1.60;;;26.90;63.30;;;;;;4939998;28;20062;-86
2023/08/10 10:11:01;;;;;;;3.63;1.95;;;27.30;63.40;;;;;;4938086;28;20019;-86
2023/08/10 10:13:27;;;;;;;6.53;2.20;;;27.60;64.40;;;;;;4922787;28;20047;-77
2023/08/10 10:15:56;;;;;;;2.97;1.63;;;28.10;61.80;;;;;;4929249;29;20126;-76
2023/08/10 10:18:24;;;;;;;5.18;1.75;;;28.60;61.10;;;;;;4938005;28;20163;-86
2023/08/10 10:20:50;;;;;;;5.10;1.90;;;28.60;58.90;;;;;;4941617;28;20026;-87
2023/08/10 10:23:17;;;;;;;4.03;1.40;;;28.80;59.60;;;;;;4927797;29;20086;-86
2023/08/10 10:26:04;;;;;;;3.22;1.67;;;28.90;58.20;;;;;;4942459;28;20019;-87
2023/08/10 10:28:31;;;;;;;2.88;1.60;;;28.80;61.40;;;;;;4942662;28;20411;-86
2023/08/10 10:31:10;;;;;;;2.83;1.77;;;29.10;60.10;;;;;;4943904;28;20042;-85
2023/08/10 10:33:38;;;;;;;2.25;1.77;;;29.30;57.40;;;;;;4922059;29;20027;-87
2023/08/10 10:36:07;;;;;;;7.05;2.30;;;29.10;57.60;;;;;;4939743;28;20027;-87
2023/08/10 10:38:33;;;;;;;5.10;1.90;;;28.70;60.10;;;;;;4941775;28;20074;-87
2023/08/10 10:41:28;;;;;;;3.67;1.70;;;28.70;60.30;;;;;;4926856;29;20481;-77
2023/08/10 10:43:54;;;;;;;5.85;3.05;;;28.90;58.60;;;;;;4920408;28;20571;-79
2023/08/10 10:46:49;;;;;;;5.43;1.98;;;29.30;59.30;;;;;;4937974;28;20031;-77
2023/08/10 10:49:19;;;;;;;2.22;2.00;;;29.20;57.70;;;;;;4922155;28;20098;-78
2023/08/10 10:51:51;;;;;;;2.50;2.00;;;29.50;60.10;;;;;;4927046;29;20062;-77
2023/08/10 10:54:17;;;;;;;5.82;1.83;;;29.70;57.30;;;;;;4936518;28;20024;-77
2023/08/10 10:56:45;;;;;;;2.00;1.70;;;29.40;56.60;;;;;;4941457;28;20063;-77
2023/08/10 10:59:10;;;;;;;4.15;2.28;;;29.00;57.90;;;;;;4935416;28;20035;-77
2023/08/10 11:01:36;;;;;;;4.82;1.70;;;29.00;58.50;;;;;;4942221;28;20031;-86
2023/08/10 11:04:05;;;;;;;4.05;1.98;;;29.00;57.40;;;;;;4924829;29;20027;-86
2023/08/10 11:06:31;;;;;;;2.60;1.83;;;29.20;58.90;;;;;;4946801;28;20020;-86
2023/08/10 11:08:57;;;;;;;5.45;2.63;;;29.30;59.50;;;;;;4941932;28;20468;-76
2023/08/10 11:11:25;;;;;;;6.10;2.13;;;29.40;58.50;;;;;;4937359;29;20523;-77
2023/08/10 11:13:55;;;;;;;1.98;1.77;;;29.20;59.00;;;;;;4937342;29;20023;-85
2023/08/10 11:16:23;;;;;;;4.63;1.70;;;28.80;58.80;;;;;;4923229;29;20107;-85
2023/08/10 11:18:53;;;;;;;3.63;2.20;;;29.10;59.40;;;;;;4938460;28;20448;-86
2023/08/10 11:21:23;;;;;;;3.50;2.03;;;29.50;58.00;;;;;;4940754;29;20027;-86
2023/08/10 11:23:51;;;;;;;3.20;1.90;;;29.60;56.90;;;;;;4936714;29;20486;-77
2023/08/10 11:26:17;;;;;;;3.65;2.03;;;29.60;57.40;;;;;;4937309;28;20138;-86
2023/08/10 11:28:43;;;;;;;2.63;1.80;;;29.50;56.90;;;;;;4934659;29;20042;-86
2023/08/10 11:31:11;;;;;;;4.45;2.47;;;29.20;58.00;;;;;;4920174;29;20612;-85
2023/08/10 11:33:36;;;;;;;3.40;1.80;;;28.40;61.00;;;;;;4938002;29;20042;-87
2023/08/10 11:36:03;;;;;;;6.78;1.80;;;28.60;59.50;;;;;;4916667;29;20843;-77
2023/08/10 11:38:29;;;;;;;3.38;1.65;;;28.30;59.30;;;;;;4924675;29;20482;-77
2023/08/10 11:40:57;;;;;;;2.40;1.83;;;27.60;59.40;;;;;;4934022;28;20417;-77
2023/08/10 11:43:25;;;;;;;7.25;1.77;;;27.50;61.30;;;;;;4933269;29;20703;-76
2023/08/10 11:45:54;;;;;;;4.63;1.98;;;27.20;60.70;;;;;;4935769;28;20032;-77
2023/08/10 11:48:19;;;;;;;4.05;1.65;;;27.10;62.60;;;;;;4915820;29;20020;-77
2023/08/10 11:50:59;;;;;;;5.45;1.92;;;27.50;63.40;;;;;;4954425;29;20039;-83
2023/08/10 11:53:32;;;;;;;5.20;1.98;;;28.00;60.90;;;;;;4955451;29;20027;-84
2023/08/10 11:55:59;;;;;;;2.20;1.52;;;28.30;60.10;;;;;;4949526;29;20503;-77
2023/08/10 11:58:31;;;;;;;2.20;1.73;;;28.30;60.40;;;;;;4923465;29;20031;-84
2023/08/10 12:01:00;;;;;;;4.57;1.83;;;28.40;63.80;;;;;;4940684;29;20095;-86
2023/08/10 12:03:29;;;;;;;4.10;1.90;;;28.80;64.00;;;;;;4925904;29;20791;-77
2023/08/10 12:05:56;;;;;;;2.10;1.90;;;28.80;58.00;;;;;;4934457;28;20027;-77
2023/08/10 12:08:34;;;;;;;9.50;2.10;;;28.70;58.60;;;;;;4915342;29;20024;-77
2023/08/10 12:11:04;;;;;;;1.83;1.73;;;28.70;64.20;;;;;;4921572;29;20032;-76
2023/08/10 12:13:30;;;;;;;2.13;1.92;;;28.30;58.80;;;;;;4934986;29;20024;-76
2023/08/10 12:15:58;;;;;;;2.30;2.10;;;28.10;59.80;;;;;;4934898;29;20034;-77
2023/08/10 12:18:25;;;;;;;2.65;2.10;;;28.40;59.40;;;;;;4917382;29;20027;-86
2023/08/10 12:20:54;;;;;;;3.58;2.28;;;28.60;60.00;;;;;;4936944;29;20027;-84
2023/08/10 12:23:23;;;;;;;3.58;1.80;;;28.90;58.30;;;;;;4927006;29;20024;-87
2023/08/10 12:25:50;;;;;;;3.55;1.83;;;29.10;56.60;;;;;;4933444;29;20020;-87
2023/08/10 12:28:17;;;;;;;2.63;2.00;;;29.20;59.50;;;;;;4925008;29;20024;-87
2023/08/10 12:30:46;;;;;;;4.03;2.05;;;29.40;57.30;;;;;;4937984;29;20047;-87
2023/08/10 12:33:12;;;;;;;3.65;1.90;;;29.30;57.30;;;;;;4934721;29;20039;-85
2023/08/10 12:35:39;;;;;;;6.07;2.15;;;29.40;59.40;;;;;;4936556;29;20035;-84
2023/08/10 12:38:05;;;;;;;2.25;2.00;;;29.50;57.30;;;;;;4940054;28;20028;-85
2023/08/10 12:40:32;;;;;;;3.60;2.15;;;29.40;58.10;;;;;;4922387;29;20055;-85
2023/08/10 12:43:00;;;;;;;3.28;2.03;;;29.40;57.40;;;;;;4937341;29;20035;-85
2023/08/10 12:45:27;;;;;;;3.40;1.88;;;29.40;57.80;;;;;;4938958;29;20032;-83
2023/08/10 12:47:54;;;;;;;5.15;2.50;;;29.40;60.70;;;;;;4919119;29;20020;-84